Time;durP1;ratioP1;P1;durP2;ratioP2;P2;SDS_P1;SDS_P2;PMS_P1;PMS_P2;Temp;Humidity;BMP_temperature;BMP_pressure;BME280_temperature;BME280_humidity;BME280_pressure;Samples;Min_cycle;Max_cycle;Signal;HPM_P1;HPM_P2
2023/12/20 00:00:48;;;;;;;140.43;38.17;;;;;;;2.06;71.86;100055.47;4452328;32;20164;-79
2023/12/20 00:03:18;;;;;;;104.47;29.80;;;;;;;1.63;73.16;100055.94;4438049;32;20156;-79
2023/12/20 00:05:47;;;;;;;89.37;26.42;;;;;;;2.03;72.03;100055.56;4438164;32;20172;-79
2023/12/20 00:08:16;;;;;;;132.07;37.13;;;;;;;2.45;70.32;100045.47;4452672;32;20140;-79
2023/12/20 00:10:47;;;;;;;168.48;38.65;;;;;;;2.07;71.46;100048.50;4452162;32;20145;-79
2023/12/20 00:13:16;;;;;;;155.63;43.75;;;;;;;2.15;71.55;100039.50;4452119;32;20159;-79
2023/12/20 00:15:49;;;;;;;101.35;29.20;;;;;;;2.06;71.52;100041.53;4452388;32;20175;-79
2023/12/20 00:18:18;;;;;;;68.68;31.90;;;;;;;1.69;72.70;100038.31;4452149;32;20163;-79
2023/12/20 00:20:51;;;;;;;194.98;42.35;;;;;;;1.95;71.89;100034.91;4452104;32;20164;-78
2023/12/20 00:23:23;;;;;;;175.35;39.72;;;;;;;1.83;72.58;100034.44;4452569;32;20204;-78
2023/12/20 00:25:54;;;;;;;108.63;37.00;;;;;;;1.79;72.94;100025.00;4452068;32;20167;-78
2023/12/20 00:28:23;;;;;;;110.75;34.65;;;;;;;1.68;73.00;100015.72;4451990;32;20156;-79
2023/12/20 00:30:52;;;;;;;124.70;37.13;;;;;;;1.98;72.38;100013.06;4452146;32;20156;-79
2023/12/20 00:33:22;;;;;;;111.25;33.17;;;;;;;1.86;72.38;100018.66;4452073;32;20528;-79
2023/12/20 00:35:58;;;;;;;55.10;28.98;;;;;;;2.06;71.87;100004.94;4451998;32;20144;-79
2023/12/20 00:38:27;;;;;;;106.93;32.47;;;;;;;2.19;71.50;100004.50;4452322;32;20152;-79
2023/12/20 00:40:58;;;;;;;105.20;35.90;;;;;;;2.41;70.49;100001.16;4452037;32;20148;-79
2023/12/20 00:43:27;;;;;;;165.12;37.58;;;;;;;2.01;71.50;100001.62;4452060;32;20159;-79
2023/12/20 00:45:56;;;;;;;85.12;30.50;;;;;;;2.09;71.44;99994.37;4451894;32;20167;-79
2023/12/20 00:48:28;;;;;;;97.70;30.17;;;;;;;2.42;70.10;99992.41;4451837;32;20201;-79
2023/12/20 00:50:58;;;;;;;92.25;31.52;;;;;;;2.14;70.97;99992.50;4452006;32;20136;-79
2023/12/20 00:53:27;;;;;;;78.90;30.98;;;;;;;2.03;71.42;99992.00;4452329;32;20175;-79
2023/12/20 00:55:58;;;;;;;83.07;31.12;;;;;;;2.01;71.31;99983.34;4452219;32;20160;-79
2023/12/20 00:58:28;;;;;;;132.87;33.93;;;;;;;1.82;71.96;99976.13;4451831;32;20160;-78
2023/12/20 01:00:56;;;;;;;93.75;35.50;;;;;;;2.09;71.22;99963.87;4451824;32;20255;-79
2023/12/20 01:03:25;;;;;;;112.60;33.00;;;;;;;2.01;71.36;99975.50;4452092;32;20171;-79
2023/12/20 01:05:54;;;;;;;105.28;30.50;;;;;;;1.97;71.07;99959.06;4451925;32;20144;-79
2023/12/20 01:08:23;;;;;;;61.08;27.45;;;;;;;1.91;71.78;99959.28;4452209;32;20152;-79
2023/12/20 01:10:53;;;;;;;89.68;30.52;;;;;;;2.21;71.11;99952.16;4451750;32;20155;-79
2023/12/20 01:13:24;;;;;;;101.65;32.38;;;;;;;2.17;71.20;99943.56;4451876;32;20207;-79
2023/12/20 01:15:53;;;;;;;112.80;36.30;;;;;;;2.14;70.83;99943.69;4451683;32;20167;-79
2023/12/20 01:18:27;;;;;;;100.20;32.60;;;;;;;1.69;72.57;99940.81;4451515;32;20187;-79
2023/12/20 01:20:57;;;;;;;78.75;33.47;;;;;;;1.92;71.81;99942.69;4451771;32;20148;-79
2023/12/20 01:23:26;;;;;;;83.47;31.05;;;;;;;1.87;71.93;99936.78;4452017;32;20148;-79
2023/12/20 01:25:56;;;;;;;94.57;35.25;;;;;;;1.67;72.58;99925.22;4437673;32;20771;-79
2023/12/20 01:28:27;;;;;;;86.85;29.40;;;;;;;2.07;71.21;99925.66;4451642;32;20171;-79
2023/12/20 01:31:00;;;;;;;76.20;29.08;;;;;;;1.78;72.12;99921.38;4452060;32;20145;-78
2023/12/20 01:33:29;;;;;;;118.78;34.75;;;;;;;2.16;71.10;99917.47;4452157;32;20525;-78
2023/12/20 01:35:59;;;;;;;96.82;28.20;;;;;;;1.76;72.11;99921.44;4452238;32;20136;-78
2023/12/20 01:38:28;;;;;;;109.20;36.70;;;;;;;1.82;72.39;99916.03;4452179;32;20181;-78
2023/12/20 01:40:57;;;;;;;102.38;32.50;;;;;;;1.63;72.96;99913.16;4451712;32;20164;-79
2023/12/20 01:43:28;;;;;;;105.47;33.05;;;;;;;1.91;72.05;99910.47;4451604;32;20529;-78
2023/12/20 01:46:07;;;;;;;102.50;35.00;;;;;;;1.69;72.45;99910.31;4451737;32;20156;-79
2023/12/20 01:48:37;;;;;;;105.80;34.42;;;;;;;1.81;72.36;99905.59;4451448;32;20172;-79
2023/12/20 01:51:07;;;;;;;127.80;35.20;;;;;;;1.25;73.69;99905.69;4451670;32;20485;-79
2023/12/20 01:53:37;;;;;;;138.52;38.78;;;;;;;1.24;73.83;99899.59;4451989;32;20152;-79
2023/12/20 01:56:07;;;;;;;75.35;31.17;;;;;;;1.34;74.17;99889.72;4451636;32;20164;-79
2023/12/20 01:58:40;;;;;;;115.55;39.85;;;;;;;1.55;73.75;99886.44;4451346;32;20191;-79
2023/12/20 02:01:13;;;;;;;86.60;33.17;;;;;;;1.41;74.26;99879.03;4451110;32;20194;-79
2023/12/20 02:03:42;;;;;;;104.68;36.28;;;;;;;1.62;73.26;99874.88;4451492;32;20422;-78
2023/12/20 02:06:12;;;;;;;83.15;33.40;;;;;;;1.74;72.74;99857.94;4451479;32;20500;-79
2023/12/20 02:08:41;;;;;;;139.93;36.53;;;;;;;1.53;73.83;99856.91;4451748;32;20144;-79
2023/12/20 02:11:11;;;;;;;111.68;35.67;;;;;;;1.87;72.30;99859.25;4451274;32;20171;-79
2023/12/20 02:13:42;;;;;;;110.95;36.22;;;;;;;1.41;73.92;99859.91;4451500;32;20161;-79
2023/12/20 02:16:22;;;;;;;85.38;34.85;;;;;;;1.20;74.73;99859.69;4451376;32;20172;-79
2023/12/20 02:18:52;;;;;;;116.07;40.67;;;;;;;1.71;72.97;99848.47;4451295;32;20172;-79
2023/12/20 02:21:32;;;;;;;91.65;35.08;;;;;;;1.63;73.19;99849.63;4451281;32;20159;-79
2023/12/20 02:24:02;;;;;;;82.00;33.25;;;;;;;1.64;73.20;99841.72;4451711;32;20180;-78
2023/12/20 02:26:33;;;;;;;114.40;37.30;;;;;;;1.32;74.33;99840.19;4451663;32;20152;-78
2023/12/20 02:29:03;;;;;;;96.07;35.47;;;;;;;1.67;72.81;99840.78;4437056;32;20179;-79
2023/12/20 02:31:32;;;;;;;87.37;35.55;;;;;;;1.39;73.95;99844.31;4451265;32;20159;-80
2023/12/20 02:34:02;;;;;;;97.72;33.00;;;;;;;1.52;73.09;99839.53;4436870;32;20180;-79
2023/12/20 02:36:32;;;;;;;99.62;35.47;;;;;;;1.63;72.92;99849.63;4451262;32;20191;-79
2023/12/20 02:39:02;;;;;;;94.87;36.85;;;;;;;1.45;73.48;99843.25;4451391;32;20133;-79
2023/12/20 02:41:31;;;;;;;78.72;33.70;;;;;;;1.51;73.49;99844.81;4451583;32;20187;-79
2023/12/20 02:44:00;;;;;;;124.80;37.45;;;;;;;1.82;72.57;99828.94;4451207;32;20547;-79
2023/12/20 02:46:29;;;;;;;124.03;37.85;;;;;;;1.58;72.47;99823.63;4451189;32;20163;-79
2023/12/20 02:48:58;;;;;;;90.30;36.15;;;;;;;1.58;72.82;99818.41;4451268;32;20528;-79
2023/12/20 02:51:27;;;;;;;98.47;39.13;;;;;;;1.79;72.34;99816.00;4451117;32;20168;-79
2023/12/20 02:53:57;;;;;;;180.55;42.65;;;;;;;1.46;73.13;99804.00;4451203;32;20163;-79
2023/12/20 02:56:26;;;;;;;123.57;37.75;;;;;;;0.94;74.10;99810.09;4451538;32;20179;-79
2023/12/20 02:58:56;;;;;;;81.47;37.35;;;;;;;1.04;74.24;99802.84;4451133;32;20187;-79
2023/12/20 03:01:25;;;;;;;79.97;37.88;;;;;;;1.43;73.54;99798.91;4451036;32;20609;-79
2023/12/20 03:03:54;;;;;;;110.80;39.20;;;;;;;1.58;73.12;99799.28;4451001;32;20156;-79
2023/12/20 03:06:24;;;;;;;114.90;36.85;;;;;;;1.75;72.42;99793.50;4450928;32;20528;-79
2023/12/20 03:08:54;;;;;;;69.30;33.25;;;;;;;1.83;71.73;99799.31;4450967;32;20420;-79
2023/12/20 03:11:27;;;;;;;87.85;32.85;;;;;;;2.00;71.37;99790.88;4451275;32;20617;-79
2023/12/20 03:13:57;;;;;;;81.00;33.10;;;;;;;2.08;71.16;99799.28;4449756;32;20175;-79
2023/12/20 03:16:29;;;;;;;134.68;39.00;;;;;;;2.02;70.50;99795.16;4436542;32;20196;-79
2023/12/20 03:18:58;;;;;;;158.32;41.90;;;;;;;1.54;71.25;99797.69;4450749;32;20160;-79
2023/12/20 03:21:28;;;;;;;81.80;35.38;;;;;;;1.26;73.08;99805.59;4450824;32;20143;-79
2023/12/20 03:23:57;;;;;;;73.80;35.75;;;;;;;1.66;72.17;99808.59;4450846;32;20174;-79
2023/12/20 03:26:27;;;;;;;138.27;39.25;;;;;;;1.83;71.58;99805.38;4451091;32;20188;-79
2023/12/20 03:28:56;;;;;;;79.53;38.05;;;;;;;1.95;71.15;99797.13;4450577;32;20258;-79
2023/12/20 03:31:29;;;;;;;71.97;34.42;;;;;;;1.89;71.50;99799.06;4450674;32;20172;-79
2023/12/20 03:33:58;;;;;;;;;;;;;;;1.76;72.02;99797.81;4450993;32;20159;-79
2023/12/20 03:36:30;;;;;;;98.37;35.83;;;;;;;2.05;71.31;99802.84;4450746;32;20040;-79
2023/12/20 03:39:05;;;;;;;120.82;36.08;;;;;;;2.15;70.97;99811.22;4450484;32;20270;-79
2023/12/20 03:41:36;;;;;;;92.45;35.97;;;;;;;2.25;70.80;99807.34;4450922;32;20175;-79
2023/12/20 03:44:05;;;;;;;94.00;35.75;;;;;;;2.25;70.75;99809.13;4450632;32;20461;-79
2023/12/20 03:46:36;;;;;;;79.18;32.20;;;;;;;2.20;70.90;99810.13;4450467;32;20740;-79
2023/12/20 03:49:05;;;;;;;99.75;34.10;;;;;;;2.25;70.57;99802.13;4450460;32;20521;-79
2023/12/20 03:51:34;;;;;;;112.03;38.63;;;;;;;2.31;69.96;99788.84;4450422;32;20169;-79
2023/12/20 03:54:04;;;;;;;111.05;37.83;;;;;;;2.05;70.40;99795.00;4450683;32;20286;-79
2023/12/20 03:56:33;;;;;;;94.68;36.30;;;;;;;1.95;70.74;99778.81;4450782;32;20153;-79
2023/12/20 03:59:04;;;;;;;83.32;35.75;;;;;;;1.96;70.72;99777.06;4450247;32;20156;-79
2023/12/20 04:01:39;;;;;;;53.50;30.27;;;;;;;2.22;70.13;99776.97;4450490;32;20144;-79
2023/12/20 04:04:08;;;;;;;63.25;30.35;;;;;;;2.29;69.74;99780.19;4450246;32;20151;-79
2023/12/20 04:06:37;;;;;;;103.25;34.40;;;;;;;2.25;70.06;99777.75;4450102;32;20204;-79
2023/12/20 04:09:09;;;;;;;85.85;32.38;;;;;;;2.08;70.08;99767.91;4450145;32;20148;-79
2023/12/20 04:11:38;;;;;;;68.30;31.25;;;;;;;2.28;70.04;99762.81;4450475;32;20172;-79
2023/12/20 04:14:10;;;;;;;86.70;35.72;;;;;;;2.40;69.90;99774.56;4450202;32;20176;-79
2023/12/20 04:16:40;;;;;;;82.18;32.55;;;;;;;2.33;70.05;99778.31;4435833;32;20159;-79
2023/12/20 04:19:13;;;;;;;100.35;35.50;;;;;;;2.58;69.10;99773.03;4435798;32;20176;-79
2023/12/20 04:21:42;;;;;;;115.00;34.63;;;;;;;2.17;70.00;99760.56;4449879;32;20524;-79
2023/12/20 04:24:14;;;;;;;85.80;36.53;;;;;;;2.18;70.14;99769.31;4450768;32;20144;-79
2023/12/20 04:26:44;;;;;;;80.80;29.98;;;;;;;2.45;69.30;99770.00;4452566;32;20160;-79
2023/12/20 04:29:14;;;;;;;88.28;33.22;;;;;;;2.46;69.48;99763.88;4452060;32;20177;-79
2023/12/20 04:31:47;;;;;;;133.32;35.55;;;;;;;2.43;69.33;99764.00;4452042;32;20163;-79
2023/12/20 04:34:16;;;;;;;;;;;;;;;2.20;69.96;99757.84;4452399;32;20528;-79
2023/12/20 04:36:46;;;;;;;62.65;30.88;;;;;;;2.25;69.73;99754.22;4452082;32;20340;-79
2023/12/20 04:39:15;;;;;;;94.95;34.22;;;;;;;2.42;69.50;99749.22;4437859;32;20164;-79
2023/12/20 04:41:44;;;;;;;95.32;35.28;;;;;;;2.34;69.73;99743.44;4452381;32;20152;-79
2023/12/20 04:44:15;;;;;;;139.10;37.13;;;;;;;2.10;69.90;99739.94;4452191;32;20179;-79
2023/12/20 04:46:47;;;;;;;218.45;48.78;;;;;;;2.01;70.09;99735.94;4451924;32;20175;-79
2023/12/20 04:49:17;;;;;;;117.60;39.53;;;;;;;1.30;71.75;99739.31;4451962;32;20164;-79
2023/12/20 04:51:46;;;;;;;297.35;60.65;;;;;;;1.61;71.70;99726.91;4451917;32;20168;-79
2023/12/20 04:54:18;;;;;;;;;;;;;;;1.49;71.28;99724.75;4452249;32;20172;-79
2023/12/20 04:56:48;;;;;;;98.85;35.10;;;;;;;1.58;71.37;99710.50;4437697;32;20047;-79
2023/12/20 04:59:18;;;;;;;78.03;31.65;;;;;;;1.62;71.46;99701.66;4452107;32;20152;-79
2023/12/20 05:01:52;;;;;;;108.03;33.83;;;;;;;1.64;71.24;99700.69;4451912;32;20562;-79
2023/12/20 05:04:21;;;;;;;96.18;38.50;;;;;;;1.51;71.92;99693.38;4451944;32;20172;-79
2023/12/20 05:06:50;;;;;;;129.10;36.90;;;;;;;1.64;71.52;99703.31;4451757;32;20168;-79
2023/12/20 05:09:20;;;;;;;167.55;40.30;;;;;;;1.54;71.56;99703.69;4451751;32;20171;-79
2023/12/20 05:11:50;;;;;;;89.10;29.50;;;;;;;1.61;71.10;99689.50;4451849;32;20145;-79
2023/12/20 05:14:20;;;;;;;119.72;34.15;;;;;;;1.69;70.59;99677.88;4452355;32;20180;-79
2023/12/20 05:16:57;;;;;;;83.25;28.87;;;;;;;1.25;72.32;99670.78;4451784;32;20171;-79
2023/12/20 05:19:26;;;;;;;113.18;39.03;;;;;;;1.38;72.22;99672.87;4451664;32;20175;-79
2023/12/20 05:21:55;;;;;;;130.95;34.53;;;;;;;1.47;71.75;99687.41;4451814;32;20167;-79
2023/12/20 05:24:25;;;;;;;80.05;31.65;;;;;;;1.55;71.40;99697.56;4451782;32;20167;-79
2023/12/20 05:26:59;;;;;;;84.75;32.75;;;;;;;1.57;71.46;99704.44;4451932;32;20429;-79
2023/12/20 05:29:29;;;;;;;149.43;35.90;;;;;;;1.97;70.34;99718.66;4452047;32;20148;-79
2023/12/20 05:32:03;;;;;;;80.55;29.52;;;;;;;2.07;69.33;99717.41;4451692;32;20185;-79
2023/12/20 05:34:33;;;;;;;124.97;33.47;;;;;;;2.06;69.74;99723.56;4451587;32;20191;-79
2023/12/20 05:37:03;;;;;;;167.48;40.25;;;;;;;1.96;70.03;99728.25;4450964;32;20147;-79
2023/12/20 05:39:32;;;;;;;205.87;39.97;;;;;;;1.90;70.33;99727.63;4451525;32;20167;-79
2023/12/20 05:42:01;;;;;;;131.18;38.00;;;;;;;1.94;70.21;99724.88;4451698;32;20145;-79
2023/12/20 05:44:37;;;;;;;72.43;27.33;;;;;;;2.10;69.64;99717.31;4451957;32;20527;-79
2023/12/20 05:47:06;;;;;;;204.70;43.83;;;;;;;2.24;69.32;99706.31;4451587;32;20168;-79
2023/12/20 05:49:35;;;;;;;65.32;29.48;;;;;;;1.69;70.07;99688.31;4437539;32;20459;-79
2023/12/20 05:52:05;;;;;;;63.95;28.17;;;;;;;1.90;69.70;99693.66;4451732;32;20160;-79
2023/12/20 05:54:35;;;;;;;70.55;29.30;;;;;;;1.76;70.13;99690.72;4451388;32;20536;-79
2023/12/20 05:57:04;;;;;;;85.00;30.37;;;;;;;2.08;69.30;99695.59;4451587;32;20160;-79
2023/12/20 05:59:33;;;;;;;112.22;35.17;;;;;;;2.01;69.33;99681.03;4451698;32;20182;-79
2023/12/20 06:02:07;;;;;;;67.05;29.80;;;;;;;2.05;69.39;99684.41;4451519;32;20430;-79
2023/12/20 06:04:37;;;;;;;261.80;48.80;;;;;;;2.18;69.20;99683.88;4451373;32;20179;-79
2023/12/20 06:07:06;;;;;;;164.23;39.28;;;;;;;1.96;69.13;99675.16;4451577;32;20163;-79
2023/12/20 06:09:35;;;;;;;217.20;42.25;;;;;;;1.88;69.66;99671.97;4451519;32;20168;-79
2023/12/20 06:12:06;;;;;;;250.38;47.78;;;;;;;1.68;69.89;99664.88;4451778;32;20137;-79
2023/12/20 06:14:35;;;;;;;89.00;29.83;;;;;;;2.12;68.69;99655.34;4451755;32;20160;-79
2023/12/20 06:17:11;;;;;;;;;;;;;;;2.13;68.00;99657.06;4451988;32;20160;-79
2023/12/20 06:19:44;;;;;;;91.55;28.98;;;;;;;2.00;68.15;99655.84;4451546;32;20040;-79
2023/12/20 06:22:15;;;;;;;185.55;39.30;;;;;;;1.91;68.58;99669.25;4451648;32;20434;-79
2023/12/20 06:24:45;;;;;;;107.70;32.35;;;;;;;1.54;69.64;99662.75;4442519;32;20520;-79
2023/12/20 06:27:13;;;;;;;219.75;43.25;;;;;;;1.75;68.80;99668.13;4436291;32;20164;-81
2023/12/20 06:29:44;;;;;;;74.28;28.98;;;;;;;1.48;69.39;99666.44;4438465;32;20434;-81
2023/12/20 06:32:18;;;;;;;96.47;33.83;;;;;;;1.42;69.96;99673.63;4437802;32;20183;-81
2023/12/20 06:34:51;;;;;;;72.12;31.17;;;;;;;1.60;69.75;99677.38;4438523;32;20148;-81
2023/12/20 06:37:20;;;;;;;82.43;29.87;;;;;;;1.68;69.95;99676.16;4437888;32;20172;-78
2023/12/20 06:39:50;;;;;;;123.97;34.40;;;;;;;1.51;70.50;99688.16;4436464;32;20449;-80
2023/12/20 06:42:19;;;;;;;74.18;36.58;;;;;;;1.57;70.17;99696.59;4436401;32;20187;-81
2023/12/20 06:44:49;;;;;;;59.38;30.80;;;;;;;1.79;70.05;99699.28;4437456;32;20192;-81
2023/12/20 06:47:20;;;;;;;90.38;34.42;;;;;;;1.84;70.04;99710.41;4437686;32;20172;-81
2023/12/20 06:49:50;;;;;;;51.45;29.55;;;;;;;1.79;70.00;99716.72;4438612;32;20192;-80
2023/12/20 06:52:22;;;;;;;84.97;30.80;;;;;;;1.50;70.78;99722.97;4422459;32;20196;-81
2023/12/20 06:54:51;;;;;;;90.68;36.17;;;;;;;1.13;70.80;99724.25;4437108;32;20152;-81
2023/12/20 06:57:23;;;;;;;58.72;31.00;;;;;;;0.93;72.28;99710.09;4436615;32;20160;-81
2023/12/20 06:59:53;;;;;;;49.27;26.30;;;;;;;0.95;72.75;99712.66;4436700;32;20540;-80
2023/12/20 07:02:25;;;;;;;84.03;37.38;;;;;;;2.02;81.50;99715.88;4436365;32;20267;-81
2023/12/20 07:04:55;;;;;;;88.80;39.58;;;;;;;3.62;82.19;99711.97;4436142;32;20157;-80
2023/12/20 07:07:24;;;;;;;66.55;32.75;;;;;;;4.45;78.45;99700.34;4435981;32;20160;-80
2023/12/20 07:09:53;;;;;;;48.53;27.85;;;;;;;4.81;70.48;99699.50;4439531;32;20168;-81
2023/12/20 07:12:23;;;;;;;73.22;31.05;;;;;;;4.32;65.11;99694.84;4451970;32;20168;-81
2023/12/20 07:14:52;;;;;;;70.57;29.15;;;;;;;4.00;63.12;99690.22;4451613;32;20176;-81
2023/12/20 07:17:24;;;;;;;61.88;28.85;;;;;;;3.45;63.85;99699.62;4451978;32;20223;-81
2023/12/20 07:19:54;;;;;;;56.42;26.12;;;;;;;3.13;64.87;99692.31;4451630;32;20527;-81
2023/12/20 07:22:24;;;;;;;63.65;29.23;;;;;;;2.80;65.76;99694.53;4437198;32;20183;-81
2023/12/20 07:24:54;;;;;;;74.32;30.15;;;;;;;2.65;66.38;99702.09;4451610;32;20171;-81
2023/12/20 07:27:24;;;;;;;69.95;30.40;;;;;;;2.49;67.08;99702.75;4451498;32;20148;-81
2023/12/20 07:29:54;;;;;;;64.25;28.48;;;;;;;2.59;66.78;99696.25;4451538;32;20148;-80
2023/12/20 07:32:24;;;;;;;104.03;40.40;;;;;;;2.23;67.79;99704.63;4451708;32;20144;-81
2023/12/20 07:34:57;;;;;;;83.60;50.83;;;;;;;2.25;68.06;99704.56;4450820;32;20156;-81
2023/12/20 07:37:26;;;;;;;63.47;35.35;;;;;;;2.11;68.50;99703.31;4451412;32;20163;-81
2023/12/20 07:39:55;;;;;;;182.35;89.75;;;;;;;2.10;68.49;99703.37;4451212;32;20160;-81
2023/12/20 07:42:25;;;;;;;102.65;59.55;;;;;;;1.95;69.23;99699.59;4450813;32;20583;-81
2023/12/20 07:44:55;;;;;;;59.20;38.00;;;;;;;2.04;69.20;99708.84;4445206;32;20164;-80
2023/12/20 07:47:27;;;;;;;63.85;36.60;;;;;;;2.18;68.63;99707.41;4451682;32;20417;-81
2023/12/20 07:49:58;;;;;;;88.82;38.10;;;;;;;1.76;69.99;99709.00;4451424;32;20159;-81
2023/12/20 07:52:27;;;;;;;58.97;35.25;;;;;;;1.81;69.58;99702.69;4450795;32;20168;-81
2023/12/20 07:54:57;;;;;;;55.30;32.72;;;;;;;1.97;69.40;99695.13;4451190;32;20155;-81
2023/12/20 07:57:32;;;;;;;67.95;36.08;;;;;;;2.01;69.04;99698.50;4450553;32;20159;-81
2023/12/20 08:00:03;;;;;;;64.10;37.42;;;;;;;2.22;69.01;99698.53;4452438;32;20167;-81
2023/12/20 08:02:33;;;;;;;57.38;37.05;;;;;;;2.15;68.88;99691.84;4453721;32;20517;-81
2023/12/20 08:05:03;;;;;;;66.18;37.28;;;;;;;2.22;69.16;99684.62;4453206;32;20160;-81
2023/12/20 08:07:33;;;;;;;54.63;37.22;;;;;;;2.35;67.90;99682.38;4453040;32;20155;-81
2023/12/20 08:10:02;;;;;;;58.70;34.28;;;;;;;2.39;67.43;99684.81;4452336;32;20196;-79
2023/12/20 08:12:33;;;;;;;62.80;38.15;;;;;;;2.26;66.96;99680.97;4452575;32;20460;-80
2023/12/20 08:15:03;;;;;;;57.60;37.08;;;;;;;2.51;67.14;99683.47;4453415;32;20144;-79
2023/12/20 08:17:35;;;;;;;64.72;38.58;;;;;;;2.70;66.70;99686.22;4453225;32;20140;-80
2023/12/20 08:20:07;;;;;;;57.42;38.00;;;;;;;2.88;65.58;99680.22;4453427;32;20170;-80
2023/12/20 08:22:36;;;;;;;61.22;37.75;;;;;;;2.85;65.96;99688.22;4453139;32;20168;-80
2023/12/20 08:25:09;;;;;;;;;;;;;;;2.67;66.03;99692.41;4453226;32;20159;-80
2023/12/20 08:27:46;;;;;;;61.45;33.83;;;;;;;2.67;66.27;99689.78;4453464;32;20035;-80
2023/12/20 08:30:22;;;;;;;62.22;36.30;;;;;;;3.02;65.61;99689.28;4453800;32;20187;-80
2023/12/20 08:32:52;;;;;;;57.78;33.08;;;;;;;2.93;65.06;99686.13;4455109;32;20188;-80
2023/12/20 08:35:24;;;;;;;53.10;35.05;;;;;;;2.75;65.23;99692.09;4455111;32;20176;-79
2023/12/20 08:37:53;;;;;;;55.22;35.55;;;;;;;2.89;65.19;99686.28;4448034;32;20511;-80
2023/12/20 08:40:24;;;;;;;62.58;37.58;;;;;;;3.00;65.12;99693.72;4454401;32;20179;-80
2023/12/20 08:42:55;;;;;;;58.72;36.33;;;;;;;3.05;64.89;99690.00;4439350;32;20215;-80
2023/12/20 08:45:24;;;;;;;66.18;43.30;;;;;;;2.86;65.31;99689.91;4438851;32;20450;-80
2023/12/20 08:47:56;;;;;;;62.78;37.38;;;;;;;3.03;65.36;99697.06;4431730;32;20419;-79
2023/12/20 08:50:32;;;;;;;55.53;33.25;;;;;;;3.26;64.98;99688.22;4438238;32;20168;-79
2023/12/20 08:53:01;;;;;;;54.53;33.85;;;;;;;3.24;64.76;99692.66;4437954;32;20192;-80
2023/12/20 08:55:33;;;;;;;56.22;33.60;;;;;;;3.37;64.63;99690.41;4437773;32;20168;-79
2023/12/20 08:58:02;;;;;;;53.13;33.42;;;;;;;3.18;65.28;99688.56;4438188;32;20171;-80
2023/12/20 09:00:31;;;;;;;53.35;31.87;;;;;;;3.44;65.22;99697.06;4437821;32;20192;-79
2023/12/20 09:03:04;;;;;;;82.20;51.28;;;;;;;3.52;65.43;99694.94;4437718;32;20184;-80
2023/12/20 09:05:36;;;;;;;55.17;34.03;;;;;;;3.81;64.93;99693.69;4438267;32;20128;-80
2023/12/20 09:08:07;;;;;;;;;;;;;;;3.87;64.73;99698.63;4437841;32;20160;-80
2023/12/20 09:10:36;;;;;;;51.37;31.10;;;;;;;3.89;65.38;99698.59;4436416;32;20044;-79
2023/12/20 09:13:06;;;;;;;53.87;34.70;;;;;;;4.13;64.84;99688.75;4437715;32;20177;-80
2023/12/20 09:15:38;;;;;;;54.42;33.63;;;;;;;4.47;63.23;99677.50;4437769;32;20159;-80
2023/12/20 09:18:11;;;;;;;55.08;33.70;;;;;;;4.06;64.32;99684.69;4437821;32;20160;-79
2023/12/20 09:20:41;;;;;;;57.08;32.80;;;;;;;4.26;64.54;99682.00;4438173;32;20149;-79
2023/12/20 09:23:13;;;;;;;58.53;32.40;;;;;;;4.33;64.28;99672.09;4437649;32;20156;-79
2023/12/20 09:25:44;;;;;;;55.47;33.28;;;;;;;4.76;63.59;99676.13;4437393;32;20160;-79
2023/12/20 09:28:13;;;;;;;52.62;31.90;;;;;;;5.33;62.79;99668.84;4438313;32;20176;-79
2023/12/20 09:30:50;;;;;;;57.65;33.78;;;;;;;6.10;60.12;99662.22;4437928;32;20157;-79
2023/12/20 09:33:26;;;;;;;49.40;30.50;;;;;;;6.94;58.41;99640.81;4438117;32;20160;-79
2023/12/20 09:35:57;;;;;;;43.58;27.60;;;;;;;7.93;55.29;99640.06;4437967;32;20152;-79
2023/12/20 09:38:26;;;;;;;54.70;30.92;;;;;;;8.55;53.51;99629.97;4423611;32;20177;-80
2023/12/20 09:40:56;;;;;;;45.83;30.25;;;;;;;9.34;51.25;99622.91;4437539;32;20148;-80
2023/12/20 09:43:28;;;;;;;45.35;31.05;;;;;;;9.86;50.28;99611.38;4437338;32;20195;-79
2023/12/20 09:46:02;;;;;;;41.75;29.40;;;;;;;10.47;47.63;99612.25;4438522;32;20534;-79
2023/12/20 09:48:34;;;;;;;42.55;27.58;;;;;;;10.84;47.84;99602.41;4438611;32;20188;-79
2023/12/20 09:51:05;;;;;;;43.40;29.08;;;;;;;11.13;46.58;99595.88;4438124;32;20164;-79
2023/12/20 09:53:37;;;;;;;43.10;30.30;;;;;;;11.62;46.20;99595.56;4437859;32;20188;-79
2023/12/20 09:56:07;;;;;;;36.78;26.23;;;;;;;11.65;46.45;99595.34;4437840;32;20152;-80
2023/12/20 09:58:38;;;;;;;35.83;26.83;;;;;;;12.06;45.92;99593.88;4437660;32;20179;-79
2023/12/20 10:01:09;;;;;;;32.63;23.38;;;;;;;12.52;45.33;99591.00;4437380;32;20148;-79
2023/12/20 10:03:42;;;;;;;31.90;23.77;;;;;;;12.34;43.59;99576.56;4436946;32;20171;-79
2023/12/20 10:06:13;;;;;;;29.52;21.67;;;;;;;12.58;43.94;99591.47;4436804;32;20156;-78
2023/12/20 10:08:43;;;;;;;26.77;22.05;;;;;;;12.98;42.52;99583.66;4436335;32;20176;-78
2023/12/20 10:11:12;;;;;;;30.17;22.77;;;;;;;13.21;41.58;99577.22;4436046;32;20167;-77
2023/12/20 10:13:44;;;;;;;30.85;22.87;;;;;;;13.62;39.91;99580.84;4436105;32;20160;-77
2023/12/20 10:16:13;;;;;;;30.45;22.90;;;;;;;13.24;40.62;99578.84;4436124;32;20187;-78
2023/12/20 10:18:49;;;;;;;30.40;22.70;;;;;;;13.19;40.15;99563.22;4436083;32;20191;-78
2023/12/20 10:21:20;;;;;;;27.00;21.50;;;;;;;13.44;39.43;99554.00;4435918;32;20141;-78
2023/12/20 10:23:50;;;;;;;27.55;21.52;;;;;;;13.34;40.17;99565.56;4436161;32;20156;-77
2023/12/20 10:26:20;;;;;;;30.02;23.00;;;;;;;13.60;40.18;99556.19;4436700;32;20152;-77
2023/12/20 10:28:52;;;;;;;32.13;22.85;;;;;;;12.56;40.97;99551.72;4436222;32;20528;-79
2023/12/20 10:31:30;;;;;;;33.23;23.80;;;;;;;12.39;42.44;99549.59;4436644;32;20144;-79
2023/12/20 10:34:01;;;;;;;35.67;23.65;;;;;;;12.66;42.20;99544.66;4436673;32;20240;-79
2023/12/20 10:36:32;;;;;;;28.30;20.83;;;;;;;13.00;41.39;99541.84;4436433;32;20180;-79
2023/12/20 10:39:11;;;;;;;28.70;22.87;;;;;;;13.44;40.42;99539.84;4436644;32;20187;-79
2023/12/20 10:41:42;;;;;;;27.80;22.23;;;;;;;13.25;39.98;99541.44;4437338;32;20132;-79
2023/12/20 10:44:11;;;;;;;28.35;21.77;;;;;;;13.71;39.43;99534.78;4436586;32;20175;-79
2023/12/20 10:46:47;;;;;;;27.60;20.60;;;;;;;13.62;39.30;99538.25;4436413;32;20144;-79
2023/12/20 10:49:18;;;;;;;28.35;21.10;;;;;;;13.87;39.60;99528.09;4436279;32;20227;-78
2023/12/20 10:51:51;;;;;;;28.27;23.27;;;;;;;13.44;40.10;99519.41;4436305;32;20156;-78
2023/12/20 10:54:21;;;;;;;27.17;19.90;;;;;;;13.24;40.72;99529.13;4436573;32;20172;-78
2023/12/20 10:56:53;;;;;;;25.50;22.48;;;;;;;13.45;40.80;99522.91;4428713;32;240145;-78
2023/12/20 10:59:25;;;;;;;24.85;20.77;;;;;;;13.49;40.42;99530.47;4436646;32;20404;-78
2023/12/20 11:01:57;;;;;;;29.17;21.35;;;;;;;13.21;40.68;99528.50;4436235;32;20598;-78
2023/12/20 11:04:40;;;;;;;26.77;21.50;;;;;;;13.27;41.01;99523.53;4435977;32;20536;-78
2023/12/20 11:07:20;;;;;;;30.55;21.45;;;;;;;13.55;40.79;99522.97;4422144;32;20816;-78
2023/12/20 11:10:01;;;;;;;28.00;20.62;;;;;;;12.74;42.09;99507.63;4436217;32;20797;-78
2023/12/20 11:12:40;;;;;;;25.42;19.55;;;;;;;13.14;41.53;99506.06;4435986;32;20172;-79
2023/12/20 11:15:09;;;;;;;26.58;21.42;;;;;;;13.49;40.52;99500.38;4435989;32;20172;-78
2023/12/20 11:17:55;;;;;;;25.80;20.37;;;;;;;13.09;41.40;99500.31;4436379;32;20160;-78
2023/12/20 11:20:36;;;;;;;28.60;21.17;;;;;;;13.28;41.39;99493.28;4435936;32;20184;-79
2023/12/20 11:23:09;;;;;;;26.77;20.02;;;;;;;13.12;41.91;99481.44;4435663;32;20187;-79
2023/12/20 11:25:46;;;;;;;;;;;;;;;13.18;41.58;99467.56;4435789;32;20179;-78
2023/12/20 11:28:24;;;;;;;26.67;19.77;;;;;;;13.44;41.76;99463.53;4436362;32;20036;-79
2023/12/20 11:30:55;;;;;;;25.40;19.50;;;;;;;13.00;42.12;99454.91;4429743;32;20163;-79
2023/12/20 11:33:31;;;;;;;25.80;19.33;;;;;;;13.17;42.58;99458.75;4435062;32;20168;-79
2023/12/20 11:36:02;;;;;;;26.87;20.55;;;;;;;13.43;42.28;99442.38;4435923;32;20136;-79
2023/12/20 11:38:38;;;;;;;26.92;20.20;;;;;;;13.41;42.14;99455.78;4436280;32;20165;-79
2023/12/20 11:41:07;;;;;;;27.08;20.50;;;;;;;13.48;42.94;99450.78;4435792;32;20551;-79